createdAt,value
2022-12-08T00:00:07.090Z,2.90
2022-12-08T00:02:33.719Z,2.90
2022-12-08T00:05:19.085Z,2.90
2022-12-08T00:08:04.163Z,2.90
2022-12-08T00:13:17.150Z,3.00
2022-12-08T00:15:43.689Z,2.90
2022-12-08T00:18:10.126Z,2.90
2022-12-08T00:20:36.854Z,2.90
2022-12-08T00:23:04.203Z,3.00
2022-12-08T00:25:31.461Z,2.90
2022-12-08T00:27:57.943Z,3.00
2022-12-08T00:30:24.362Z,3.10
2022-12-08T00:32:50.875Z,3.10
2022-12-08T00:35:17.553Z,3.20
2022-12-08T00:37:43.984Z,3.30
2022-12-08T00:40:10.895Z,3.30
2022-12-08T00:42:37.428Z,3.40
2022-12-08T00:45:04.038Z,3.40
2022-12-08T00:47:30.465Z,3.40
2022-12-08T00:49:57.550Z,3.40
2022-12-08T00:52:24.023Z,3.40
2022-12-08T00:54:50.449Z,3.50
2022-12-08T00:57:16.987Z,3.40
2022-12-08T00:59:43.510Z,3.40
2022-12-08T01:02:10.020Z,3.50
2022-12-08T01:04:36.587Z,3.50
2022-12-08T01:07:03.198Z,3.50
2022-12-08T01:09:29.659Z,3.50
2022-12-08T01:11:56.186Z,3.50
2022-12-08T01:14:22.722Z,3.40
2022-12-08T01:16:49.324Z,3.40
2022-12-08T01:19:16.075Z,3.40
2022-12-08T01:21:43.483Z,3.30
2022-12-08T01:24:13.882Z,3.30
2022-12-08T01:26:40.623Z,3.30
2022-12-08T01:29:07.132Z,3.30
2022-12-08T01:31:33.649Z,3.30
2022-12-08T01:34:00.165Z,3.30
2022-12-08T01:36:28.267Z,3.30
2022-12-08T01:38:56.466Z,3.30
2022-12-08T01:41:24.386Z,3.40
2022-12-08T01:44:10.624Z,3.40
2022-12-08T01:46:38.600Z,3.40
2022-12-08T01:49:08.066Z,3.40
2022-12-08T01:51:37.282Z,3.50
2022-12-08T01:54:05.542Z,3.50
2022-12-08T01:56:34.912Z,3.60
2022-12-08T01:59:01.603Z,3.50
2022-12-08T02:01:28.279Z,3.60
2022-12-08T02:03:58.758Z,3.60
2022-12-08T02:06:26.215Z,3.60
2022-12-08T02:08:55.137Z,3.60
2022-12-08T02:11:21.957Z,3.60
2022-12-08T02:13:49.308Z,3.60
2022-12-08T02:16:22.093Z,3.60
2022-12-08T02:19:30.803Z,3.70
2022-12-08T02:22:06.989Z,3.60
2022-12-08T02:24:52.642Z,3.70
2022-12-08T02:27:38.488Z,3.70
2022-12-08T02:30:23.653Z,3.60
2022-12-08T02:33:08.190Z,3.70
2022-12-08T02:35:53.582Z,3.70
2022-12-08T02:38:19.999Z,3.70
2022-12-08T02:40:53.599Z,3.70
2022-12-08T02:43:25.990Z,3.70
2022-12-08T02:45:55.578Z,3.70
2022-12-08T02:48:22.158Z,3.70
2022-12-08T02:50:48.684Z,3.70
2022-12-08T02:55:46.690Z,3.70
2022-12-08T02:58:29.425Z,3.70
2022-12-08T03:01:14.579Z,3.70
2022-12-08T03:03:46.328Z,3.70
2022-12-08T03:06:20.314Z,3.70
2022-12-08T03:08:53.001Z,3.80
2022-12-08T03:11:40.354Z,3.70
2022-12-08T03:14:07.501Z,3.80
2022-12-08T03:16:36.651Z,3.80
2022-12-08T03:19:18.417Z,3.80
2022-12-08T03:21:45.979Z,3.80
2022-12-08T03:24:12.964Z,3.70
2022-12-08T03:26:43.345Z,3.80
2022-12-08T03:29:10.333Z,3.70
2022-12-08T03:31:38.955Z,3.70
2022-12-08T03:34:05.863Z,3.70
2022-12-08T03:36:32.451Z,3.70
2022-12-08T03:38:59.746Z,3.70
2022-12-08T03:41:26.886Z,3.70
2022-12-08T03:43:54.588Z,3.70
2022-12-08T03:48:48.348Z,3.70
2022-12-08T03:51:15.142Z,3.70
2022-12-08T03:53:41.841Z,3.70
2022-12-08T03:56:22.153Z,3.70
2022-12-08T03:58:48.647Z,3.70
2022-12-08T04:01:15.139Z,3.70
2022-12-08T04:03:41.586Z,3.70
2022-12-08T04:06:08.204Z,3.70
2022-12-08T04:08:34.911Z,3.70
2022-12-08T04:11:01.476Z,3.70
2022-12-08T04:13:28.019Z,3.70
2022-12-08T04:15:54.616Z,3.70
2022-12-08T04:18:21.091Z,3.70
2022-12-08T04:20:47.584Z,3.70
2022-12-08T04:23:14.129Z,3.70
2022-12-08T04:25:40.699Z,3.70
2022-12-08T04:28:07.281Z,3.70
2022-12-08T04:30:34.123Z,3.70
2022-12-08T04:33:00.573Z,3.70
2022-12-08T04:35:27.495Z,3.60
2022-12-08T04:37:53.995Z,3.60
2022-12-08T04:40:20.511Z,3.60
2022-12-08T04:42:47.024Z,3.60
2022-12-08T04:45:13.500Z,3.60
2022-12-08T04:47:40.102Z,3.60
2022-12-08T04:50:07.369Z,3.50
2022-12-08T04:52:34.035Z,3.60
2022-12-08T04:55:00.551Z,3.60
2022-12-08T04:57:27.142Z,3.50
2022-12-08T04:59:53.613Z,3.50
2022-12-08T05:02:20.155Z,3.50
2022-12-08T05:04:46.698Z,3.50
2022-12-08T05:07:13.326Z,3.50
2022-12-08T05:09:39.793Z,3.60
2022-12-08T05:12:06.372Z,3.50
2022-12-08T05:14:32.920Z,3.60
2022-12-08T05:17:00.885Z,3.60
2022-12-08T05:19:29.059Z,3.60
2022-12-08T05:21:55.564Z,3.60
2022-12-08T05:24:22.118Z,3.60
2022-12-08T05:26:48.605Z,3.60
2022-12-08T05:29:15.086Z,3.60
2022-12-08T05:31:41.790Z,3.60
2022-12-08T05:34:08.232Z,3.60
2022-12-08T05:36:34.670Z,3.60
2022-12-08T05:39:01.269Z,3.60
2022-12-08T05:41:27.845Z,3.60
2022-12-08T05:43:54.281Z,3.60
2022-12-08T05:46:20.922Z,3.60
2022-12-08T05:48:47.528Z,3.60
2022-12-08T05:51:17.135Z,3.60
2022-12-08T05:53:43.681Z,3.60
2022-12-08T05:56:12.248Z,3.60
2022-12-08T05:58:39.037Z,3.70
2022-12-08T06:01:05.719Z,3.70
2022-12-08T06:03:32.523Z,3.70
2022-12-08T06:05:59.146Z,3.70
2022-12-08T06:08:25.688Z,3.70
2022-12-08T06:10:52.312Z,3.70
2022-12-08T06:13:18.813Z,3.70
2022-12-08T06:15:45.393Z,3.70
2022-12-08T06:18:11.926Z,3.70
2022-12-08T06:20:38.380Z,3.70
2022-12-08T06:23:04.892Z,3.70
2022-12-08T06:25:31.404Z,3.70
2022-12-08T06:27:57.844Z,3.70
2022-12-08T06:30:24.404Z,3.70
2022-12-08T06:32:50.838Z,3.60
2022-12-08T06:35:17.416Z,3.70
2022-12-08T06:37:43.912Z,3.70
2022-12-08T06:40:10.574Z,3.60
2022-12-08T06:42:47.231Z,3.60
2022-12-08T06:45:15.040Z,3.60
2022-12-08T06:47:41.727Z,3.60
2022-12-08T06:50:08.896Z,3.60
2022-12-08T06:52:40.821Z,3.60
2022-12-08T06:55:29.184Z,3.60
2022-12-08T06:57:59.470Z,3.50
2022-12-08T07:00:26.095Z,3.50
2022-12-08T07:02:52.642Z,3.50
2022-12-08T07:05:19.235Z,3.50
2022-12-08T07:07:45.779Z,3.50
2022-12-08T07:10:12.399Z,3.50
2022-12-08T07:12:38.938Z,3.50
2022-12-08T07:15:05.701Z,3.50
2022-12-08T07:17:32.238Z,3.50
2022-12-08T07:19:58.733Z,3.40
2022-12-08T07:22:25.296Z,3.40
2022-12-08T07:24:51.740Z,3.40
2022-12-08T07:27:18.256Z,3.40
2022-12-08T07:29:44.759Z,3.40
2022-12-08T07:32:11.214Z,3.40
2022-12-08T07:34:37.692Z,3.40
2022-12-08T07:37:04.266Z,3.40
2022-12-08T07:39:31.056Z,3.40
2022-12-08T07:41:57.626Z,3.40
2022-12-08T07:44:24.174Z,3.40
2022-12-08T07:46:50.614Z,3.40
2022-12-08T07:49:17.119Z,3.30
2022-12-08T07:51:43.652Z,3.30
2022-12-08T07:54:12.978Z,3.30
2022-12-08T07:56:39.479Z,3.30
2022-12-08T07:59:06.008Z,3.30
2022-12-08T08:01:33.284Z,3.20
2022-12-08T08:04:01.834Z,3.20
2022-12-08T08:06:28.552Z,3.20
2022-12-08T08:08:55.216Z,3.20
2022-12-08T08:11:22.143Z,3.20
2022-12-08T08:13:50.925Z,3.20
2022-12-08T08:16:18.087Z,3.20
2022-12-08T08:18:46.264Z,3.30
2022-12-08T08:23:59.095Z,3.30
2022-12-08T08:26:25.604Z,3.30
2022-12-08T08:28:52.248Z,3.30
2022-12-08T08:31:23.838Z,3.30
2022-12-08T08:33:50.358Z,3.30
2022-12-08T08:36:16.906Z,3.30
2022-12-08T08:38:44.120Z,3.30
2022-12-08T08:41:11.064Z,3.30
2022-12-08T08:43:38.579Z,3.30
2022-12-08T08:46:06.325Z,3.30
2022-12-08T08:48:32.937Z,3.30
2022-12-08T08:51:06.173Z,3.40
2022-12-08T08:53:32.624Z,3.30
2022-12-08T08:56:01.581Z,3.40
2022-12-08T08:58:29.229Z,3.40
2022-12-08T09:00:56.265Z,3.40
2022-12-08T09:03:22.742Z,3.50
2022-12-08T09:05:50.079Z,3.50
2022-12-08T09:08:16.597Z,3.60
2022-12-08T09:10:43.083Z,3.60
2022-12-08T09:13:09.549Z,3.60
2022-12-08T09:15:36.105Z,3.60
2022-12-08T09:18:02.700Z,3.70
2022-12-08T09:20:29.161Z,3.80
2022-12-08T09:22:55.632Z,3.80
2022-12-08T09:25:22.125Z,3.80
2022-12-08T09:27:48.619Z,3.80
2022-12-08T09:30:15.102Z,3.80
2022-12-08T09:32:41.643Z,3.90
2022-12-08T09:35:08.333Z,3.80
2022-12-08T09:37:35.020Z,3.90
2022-12-08T09:40:02.136Z,3.90
2022-12-08T09:42:47.628Z,4.00
2022-12-08T09:45:15.420Z,4.00
2022-12-08T09:47:52.984Z,4.00
2022-12-08T09:50:19.381Z,4.10
2022-12-08T09:52:48.268Z,4.20
2022-12-08T09:55:24.352Z,4.20
2022-12-08T09:57:56.646Z,4.30
2022-12-08T10:00:23.315Z,4.30
2022-12-08T10:02:49.828Z,4.50
2022-12-08T10:05:16.400Z,4.60
2022-12-08T10:07:48.486Z,4.70
2022-12-08T10:10:21.175Z,4.80
2022-12-08T10:12:47.660Z,5.00
2022-12-08T10:15:32.886Z,5.10
2022-12-08T10:18:01.705Z,5.20
2022-12-08T10:20:40.194Z,5.20
2022-12-08T10:23:12.775Z,5.20
2022-12-08T10:25:43.538Z,5.20
2022-12-08T10:28:10.439Z,5.10
2022-12-08T10:30:37.233Z,5.00
2022-12-08T10:33:04.272Z,4.90
2022-12-08T10:35:47.492Z,4.80
2022-12-08T10:38:17.900Z,4.70
2022-12-08T10:40:45.951Z,4.70
2022-12-08T10:43:18.779Z,4.80
2022-12-08T10:45:45.253Z,4.80
2022-12-08T10:48:11.706Z,4.90
2022-12-08T10:50:43.324Z,5.00
2022-12-08T10:53:09.823Z,5.10
2022-12-08T10:55:44.024Z,5.20
2022-12-08T10:58:27.475Z,5.20
2022-12-08T11:00:55.375Z,5.30
2022-12-08T11:03:28.060Z,5.30
2022-12-08T11:05:59.254Z,5.30
2022-12-08T11:08:28.780Z,5.30
2022-12-08T11:10:55.564Z,5.20
2022-12-08T11:13:26.449Z,5.40
2022-12-08T11:15:54.833Z,5.60
2022-12-08T11:18:22.646Z,5.70
2022-12-08T11:20:56.297Z,5.80
2022-12-08T11:23:24.568Z,5.70
2022-12-08T11:25:51.533Z,5.70
2022-12-08T11:28:23.149Z,5.70
2022-12-08T11:30:57.565Z,5.80
2022-12-08T11:33:28.147Z,5.80
2022-12-08T11:36:02.876Z,5.80
2022-12-08T11:38:29.868Z,5.70
2022-12-08T11:41:16.808Z,5.50
2022-12-08T11:44:02.118Z,5.40
2022-12-08T11:46:32.975Z,5.30
2022-12-08T11:49:06.184Z,5.20
2022-12-08T11:51:33.559Z,5.10
2022-12-08T11:54:13.390Z,5.00
2022-12-08T11:57:06.746Z,5.00
2022-12-08T11:59:39.359Z,5.00
2022-12-08T12:02:08.173Z,5.10
2022-12-08T12:04:37.080Z,5.30
2022-12-08T12:07:06.390Z,5.60
2022-12-08T12:09:37.805Z,5.80
2022-12-08T12:12:22.652Z,6.10
2022-12-08T12:14:59.494Z,6.30
2022-12-08T12:17:44.616Z,6.30
2022-12-08T12:20:17.237Z,6.20
2022-12-08T12:22:44.832Z,6.20
2022-12-08T12:25:22.592Z,6.20
2022-12-08T12:27:50.983Z,6.10
2022-12-08T12:30:22.268Z,6.00
2022-12-08T12:32:52.699Z,5.90
2022-12-08T12:35:39.463Z,5.80
2022-12-08T12:38:30.934Z,5.80
2022-12-08T12:41:02.116Z,5.90
2022-12-08T12:43:31.380Z,5.90
2022-12-08T12:46:33.194Z,5.80
2022-12-08T12:49:20.592Z,5.70
2022-12-08T12:51:47.538Z,5.80
2022-12-08T12:54:24.217Z,5.80
2022-12-08T12:56:52.743Z,5.70
2022-12-08T12:59:31.044Z,5.70
2022-12-08T13:01:57.552Z,5.60
2022-12-08T13:04:34.992Z,5.60
2022-12-08T13:07:02.053Z,5.60
2022-12-08T13:09:32.340Z,5.70
2022-12-08T13:12:00.476Z,5.70
2022-12-08T13:14:26.917Z,5.70
2022-12-08T13:16:54.833Z,5.70
2022-12-08T13:19:22.297Z,5.70
2022-12-08T13:21:48.748Z,5.70
2022-12-08T13:24:24.079Z,5.70
2022-12-08T13:27:10.897Z,5.70
2022-12-08T13:29:38.348Z,5.60
2022-12-08T13:32:24.745Z,5.60
2022-12-08T13:34:59.797Z,5.60
2022-12-08T13:37:50.712Z,5.60
2022-12-08T13:40:22.492Z,5.60
2022-12-08T13:43:07.717Z,5.60
2022-12-08T13:46:20.157Z,5.70
2022-12-08T13:48:51.183Z,5.60
2022-12-08T13:57:05.579Z,5.40
2022-12-08T13:59:42.707Z,5.40
2022-12-08T14:02:16.875Z,5.50
2022-12-08T14:07:37.767Z,5.60
2022-12-08T14:10:07.375Z,5.60
2022-12-08T14:12:34.005Z,5.50
2022-12-08T14:15:03.683Z,5.50
2022-12-08T14:17:30.698Z,5.40
2022-12-08T14:19:58.300Z,5.40
2022-12-08T14:22:25.308Z,5.30
2022-12-08T14:24:53.467Z,5.30
2022-12-08T14:27:21.478Z,5.20
2022-12-08T14:29:52.298Z,5.20
2022-12-08T14:32:19.376Z,5.20
2022-12-08T14:34:46.142Z,5.20
2022-12-08T14:37:12.765Z,5.10
2022-12-08T14:39:39.884Z,5.10
2022-12-08T14:42:06.403Z,5.10
2022-12-08T14:44:35.388Z,5.10
2022-12-08T14:47:09.195Z,5.00
2022-12-08T14:49:37.784Z,5.10
2022-12-08T14:52:08.902Z,5.00
2022-12-08T14:54:35.592Z,5.00
2022-12-08T14:57:02.467Z,5.00
2022-12-08T14:59:33.338Z,5.00
2022-12-08T15:02:08.825Z,5.00
2022-12-08T15:04:37.730Z,5.00
2022-12-08T15:07:04.255Z,5.00
2022-12-08T15:09:32.395Z,5.00
2022-12-08T15:12:02.930Z,5.00
2022-12-08T15:14:34.042Z,5.00
2022-12-08T15:17:00.857Z,4.90
2022-12-08T15:19:28.369Z,5.00
2022-12-08T15:21:59.380Z,5.00
2022-12-08T15:24:28.183Z,5.00
2022-12-08T15:26:54.872Z,5.00
2022-12-08T15:29:21.598Z,4.90
2022-12-08T15:31:48.489Z,4.90
2022-12-08T15:34:15.006Z,4.90
2022-12-08T15:36:42.885Z,4.90
2022-12-08T15:39:21.444Z,4.90
2022-12-08T15:41:47.911Z,4.80
2022-12-08T15:44:14.348Z,4.80
2022-12-08T15:46:40.956Z,4.80
2022-12-08T15:49:13.715Z,4.80
2022-12-08T15:51:40.344Z,4.90
2022-12-08T15:54:06.847Z,4.80
2022-12-08T15:56:34.478Z,4.80
2022-12-08T15:59:03.865Z,4.80
2022-12-08T16:01:30.462Z,4.80
2022-12-08T16:04:34.088Z,4.80
2022-12-08T16:09:39.721Z,4.80
2022-12-08T16:12:25.951Z,4.70
2022-12-08T16:17:40.166Z,4.70
2022-12-08T16:20:13.899Z,4.60
2022-12-08T16:23:07.658Z,4.60
2022-12-08T16:25:28.780Z,4.60
2022-12-08T16:28:05.268Z,4.50
2022-12-08T16:30:39.302Z,4.50
2022-12-08T16:33:06.106Z,4.40
2022-12-08T16:35:32.804Z,4.30
2022-12-08T16:37:59.325Z,4.20
2022-12-08T16:40:25.813Z,4.20
2022-12-08T16:42:52.374Z,4.20
2022-12-08T16:45:21.159Z,4.20
2022-12-08T16:47:48.823Z,4.20
2022-12-08T16:50:20.349Z,4.20
2022-12-08T16:52:47.592Z,4.10
2022-12-08T16:55:15.444Z,4.10
2022-12-08T16:57:42.365Z,4.10
2022-12-08T17:00:10.437Z,4.00
2022-12-08T17:02:37.034Z,4.00
2022-12-08T17:05:04.286Z,4.00
2022-12-08T17:07:30.782Z,4.00
2022-12-08T17:09:57.788Z,4.00
2022-12-08T17:12:24.303Z,4.00
2022-12-08T17:14:50.839Z,4.00
2022-12-08T17:17:17.353Z,3.90
2022-12-08T17:19:43.919Z,3.90
2022-12-08T17:22:10.358Z,3.90
2022-12-08T17:24:36.989Z,3.90
2022-12-08T17:27:04.189Z,3.90
2022-12-08T17:29:31.491Z,3.90
2022-12-08T17:31:58.540Z,3.90
2022-12-08T17:34:25.233Z,3.80
2022-12-08T17:36:51.792Z,3.90
2022-12-08T17:39:19.127Z,3.80
2022-12-08T17:41:46.439Z,3.80
2022-12-08T17:44:14.283Z,3.80
2022-12-08T17:46:43.412Z,3.70
2022-12-08T17:49:15.512Z,3.80
2022-12-08T17:51:42.041Z,3.80
2022-12-08T17:54:08.562Z,3.80
2022-12-08T17:56:35.465Z,3.80
2022-12-08T17:59:02.819Z,3.80
2022-12-08T18:01:29.410Z,3.80
2022-12-08T18:03:57.661Z,3.80
2022-12-08T18:06:26.951Z,3.80
2022-12-08T18:08:57.999Z,3.70
2022-12-08T18:11:24.780Z,3.70
2022-12-08T18:13:51.489Z,3.60
2022-12-08T18:16:19.061Z,3.60
2022-12-08T18:18:45.655Z,3.60
2022-12-08T18:21:12.377Z,3.60
2022-12-08T18:23:39.625Z,3.60
2022-12-08T18:26:06.850Z,3.60
2022-12-08T18:28:33.801Z,3.50
2022-12-08T18:31:00.489Z,3.60
2022-12-08T18:33:27.069Z,3.60
2022-12-08T18:35:53.543Z,3.60
2022-12-08T18:38:20.159Z,3.60
2022-12-08T18:40:46.674Z,3.60
2022-12-08T18:43:13.086Z,3.50
2022-12-08T18:45:39.851Z,3.50
2022-12-08T18:48:06.779Z,3.50
2022-12-08T18:50:33.315Z,3.50
2022-12-08T18:52:59.785Z,3.50
2022-12-08T18:55:26.356Z,3.50
2022-12-08T18:57:52.987Z,3.50
2022-12-08T19:00:19.657Z,3.40
2022-12-08T19:02:46.411Z,3.50
2022-12-08T19:05:13.509Z,3.50
2022-12-08T19:07:40.069Z,3.50
2022-12-08T19:10:07.400Z,3.50
2022-12-08T19:12:34.100Z,3.40
2022-12-08T19:15:00.823Z,3.40
2022-12-08T19:17:29.685Z,3.40
2022-12-08T19:19:56.266Z,3.40
2022-12-08T19:22:22.770Z,3.40
2022-12-08T19:24:49.495Z,3.40
2022-12-08T19:27:16.073Z,3.40
2022-12-08T19:29:42.652Z,3.40
2022-12-08T19:32:09.104Z,3.40
2022-12-08T19:34:35.696Z,3.40
2022-12-08T19:37:02.204Z,3.40
2022-12-08T19:39:47.286Z,3.40
2022-12-08T19:42:36.367Z,3.40
2022-12-08T19:45:05.112Z,3.30
2022-12-08T19:47:31.684Z,3.30
2022-12-08T19:50:18.379Z,3.30
2022-12-08T19:52:44.959Z,3.30
2022-12-08T19:55:12.345Z,3.30
2022-12-08T19:57:38.938Z,3.30
2022-12-08T20:00:06.726Z,3.30
2022-12-08T20:02:33.459Z,3.30
2022-12-08T20:05:00.144Z,3.30
2022-12-08T20:07:26.599Z,3.30
2022-12-08T20:09:53.176Z,3.30
2022-12-08T20:12:19.634Z,3.30
2022-12-08T20:14:46.510Z,3.30
2022-12-08T20:17:13.075Z,3.30
2022-12-08T20:19:39.662Z,3.40
2022-12-08T20:22:06.163Z,3.30
2022-12-08T20:24:32.759Z,3.40
2022-12-08T20:26:59.288Z,3.40
2022-12-08T20:29:25.771Z,3.40
2022-12-08T20:31:52.371Z,3.40
2022-12-08T20:34:19.073Z,3.40
2022-12-08T20:36:45.968Z,3.40
2022-12-08T20:39:15.729Z,3.40
2022-12-08T20:41:43.057Z,3.40
2022-12-08T20:44:09.873Z,3.40
2022-12-08T20:46:36.412Z,3.40
2022-12-08T20:49:03.932Z,3.40
2022-12-08T20:51:32.184Z,3.40
2022-12-08T20:53:58.978Z,3.40
2022-12-08T20:56:25.733Z,3.40
2022-12-08T20:58:53.092Z,3.40
2022-12-08T21:01:20.999Z,3.40
2022-12-08T21:03:48.411Z,3.40
2022-12-08T21:06:15.212Z,3.40
2022-12-08T21:08:41.995Z,3.40
2022-12-08T21:11:09.451Z,3.40
2022-12-08T21:13:39.420Z,3.40
2022-12-08T21:16:06.944Z,3.40
2022-12-08T21:18:39.141Z,3.40
2022-12-08T21:21:08.104Z,3.40
2022-12-08T21:23:35.055Z,3.40
2022-12-08T21:26:02.268Z,3.40
2022-12-08T21:28:28.914Z,3.40
2022-12-08T21:30:55.889Z,3.40
2022-12-08T21:33:22.725Z,3.40
2022-12-08T21:35:49.343Z,3.40
2022-12-08T21:38:15.863Z,3.40
2022-12-08T21:40:42.970Z,3.40
2022-12-08T21:43:09.476Z,3.40
2022-12-08T21:45:36.203Z,3.40
2022-12-08T21:48:10.842Z,3.40
2022-12-08T21:50:38.400Z,3.40
2022-12-08T21:53:04.971Z,3.40
2022-12-08T21:55:31.573Z,3.40
2022-12-08T21:58:00.895Z,3.40
2022-12-08T22:00:27.683Z,3.40
2022-12-08T22:02:54.413Z,3.40
2022-12-08T22:05:21.018Z,3.40
2022-12-08T22:07:47.608Z,3.40
2022-12-08T22:10:14.174Z,3.30
2022-12-08T22:12:41.101Z,3.40
2022-12-08T22:15:09.160Z,3.40
2022-12-08T22:17:37.265Z,3.40
2022-12-08T22:20:05.409Z,3.40
2022-12-08T22:22:33.369Z,3.40
2022-12-08T22:25:00.381Z,3.40
2022-12-08T22:27:27.016Z,3.40
2022-12-08T22:29:54.856Z,3.40
2022-12-08T22:32:21.601Z,3.30
2022-12-08T22:34:48.107Z,3.40
2022-12-08T22:37:14.606Z,3.40
2022-12-08T22:39:41.186Z,3.40
2022-12-08T22:42:07.709Z,3.40
2022-12-08T22:44:34.165Z,3.40
2022-12-08T22:47:00.862Z,3.30
2022-12-08T22:49:27.638Z,3.40
2022-12-08T22:51:54.147Z,3.40
2022-12-08T22:54:20.581Z,3.40
2022-12-08T22:56:47.345Z,3.30
2022-12-08T22:59:13.913Z,3.40
2022-12-08T23:01:40.678Z,3.40
2022-12-08T23:04:10.313Z,3.40
2022-12-08T23:06:40.965Z,3.40
2022-12-08T23:09:08.239Z,3.40
2022-12-08T23:11:35.868Z,3.40
2022-12-08T23:14:02.597Z,3.40
2022-12-08T23:16:29.808Z,3.40
2022-12-08T23:18:56.577Z,3.40
2022-12-08T23:21:23.156Z,3.40
2022-12-08T23:23:49.684Z,3.40
2022-12-08T23:26:17.996Z,3.40
2022-12-08T23:28:44.508Z,3.40
2022-12-08T23:31:11.163Z,3.40
2022-12-08T23:33:37.861Z,3.40
2022-12-08T23:36:04.493Z,3.40
2022-12-08T23:38:31.248Z,3.50
2022-12-08T23:41:02.119Z,3.50
2022-12-08T23:43:28.714Z,3.40
2022-12-08T23:45:55.695Z,3.50
2022-12-08T23:48:22.351Z,3.40
2022-12-08T23:50:49.080Z,3.40
2022-12-08T23:53:15.638Z,3.30
2022-12-08T23:55:42.277Z,3.30
2022-12-08T23:58:08.744Z,3.30
